createdAt,value
2019-01-31T00:02:44.720Z,99482.91
2019-01-31T00:05:19.225Z,99481.17
2019-01-31T00:07:56.832Z,99485.99
2019-01-31T00:11:00.260Z,99485.19
2019-01-31T00:13:54.115Z,99481.63
2019-01-31T00:16:31.399Z,99492.22
2019-01-31T00:19:11.832Z,99487.77
2019-01-31T00:21:55.395Z,99487.56
2019-01-31T00:24:38.579Z,99494.30
2019-01-31T00:27:16.362Z,99493.33
2019-01-31T00:30:00.178Z,99493.91
2019-01-31T00:32:52.828Z,99489.20
2019-01-31T00:35:42.733Z,99499.95
2019-01-31T00:38:17.275Z,99501.72
2019-01-31T00:40:54.669Z,99508.24
2019-01-31T00:43:38.360Z,99513.41
2019-01-31T00:46:24.219Z,99507.28
2019-01-31T00:49:18.121Z,99509.70
2019-01-31T00:52:07.555Z,99503.72
2019-01-31T00:54:45.294Z,99501.01
2019-01-31T00:57:16.802Z,99512.00
2019-01-31T00:59:51.104Z,99512.25
2019-01-31T01:02:41.115Z,99511.78
2019-01-31T01:05:37.090Z,99516.88
2019-01-31T01:08:17.577Z,99513.17
2019-01-31T01:10:52.069Z,99526.06
2019-01-31T01:13:46.355Z,99529.53
2019-01-31T01:16:20.535Z,99528.52
2019-01-31T01:19:09.915Z,99533.57
2019-01-31T01:21:59.533Z,99530.97
2019-01-31T01:24:53.783Z,99534.43
2019-01-31T01:27:37.171Z,99533.31
2019-01-31T01:30:23.825Z,99537.03
2019-01-31T01:33:03.871Z,99541.33
2019-01-31T01:35:38.661Z,99533.18
2019-01-31T01:38:15.942Z,99532.35
2019-01-31T01:41:20.790Z,99537.88
2019-01-31T01:44:10.430Z,99540.98
2019-01-31T01:46:44.735Z,99548.42
2019-01-31T01:49:21.925Z,99547.33
2019-01-31T01:52:12.889Z,99552.16
2019-01-31T01:54:56.288Z,99547.08
2019-01-31T01:57:59.286Z,99554.91
2019-01-31T02:00:33.812Z,99547.95
2019-01-31T02:03:15.153Z,99561.02
2019-01-31T02:06:03.149Z,99560.53
2019-01-31T02:08:37.269Z,99560.28
2019-01-31T02:11:20.602Z,99558.09
2019-01-31T02:14:13.100Z,99558.34
2019-01-31T02:16:56.495Z,99557.98
2019-01-31T02:19:33.473Z,99557.19
2019-01-31T02:22:10.687Z,99552.27
2019-01-31T02:24:48.107Z,99552.45
2019-01-31T02:27:19.630Z,99555.06
2019-01-31T02:30:00.013Z,99553.95
2019-01-31T02:32:34.548Z,99548.09
2019-01-31T02:35:11.981Z,99554.03
2019-01-31T02:37:43.508Z,99547.33
2019-01-31T02:40:17.762Z,99547.36
2019-01-31T02:42:52.256Z,99543.90
2019-01-31T02:45:49.410Z,99545.26
2019-01-31T02:48:20.905Z,99543.58
2019-01-31T02:51:04.436Z,99540.91
2019-01-31T02:53:50.942Z,99536.05
2019-01-31T02:56:31.247Z,99535.57
2019-01-31T02:59:08.520Z,99545.08
2019-01-31T03:01:55.364Z,99538.48
2019-01-31T03:04:29.574Z,99531.77
2019-01-31T03:07:03.895Z,99537.28
2019-01-31T03:09:54.552Z,99530.29
2019-01-31T03:12:17.666Z,99527.56
2019-01-31T03:14:49.351Z,99533.25
2019-01-31T03:17:32.891Z,99529.88
2019-01-31T03:20:13.329Z,99527.14
2019-01-31T03:23:01.269Z,99524.77
2019-01-31T03:25:38.587Z,99531.19
2019-01-31T03:28:28.450Z,99528.48
2019-01-31T03:31:15.145Z,99530.03
2019-01-31T03:33:55.676Z,99535.54
2019-01-31T03:36:36.046Z,99538.44
2019-01-31T03:39:25.809Z,99533.03
2019-01-31T03:42:00.073Z,99536.47
2019-01-31T03:44:40.748Z,99527.91
2019-01-31T03:47:12.269Z,99530.45
2019-01-31T03:49:49.912Z,99529.75
2019-01-31T03:52:44.369Z,99531.09
2019-01-31T03:55:25.006Z,99534.17
2019-01-31T03:58:20.791Z,99528.55
2019-01-31T04:01:11.772Z,99527.59
2019-01-31T04:03:49.092Z,99531.58
2019-01-31T04:06:19.769Z,99525.14
2019-01-31T04:08:48.310Z,99526.85
2019-01-31T04:11:16.935Z,99529.81
2019-01-31T04:13:45.451Z,99529.81
2019-01-31T04:16:13.996Z,99534.47
2019-01-31T04:18:42.594Z,99540.70
2019-01-31T04:21:11.569Z,99538.95
2019-01-31T04:23:40.223Z,99544.53
2019-01-31T04:26:09.402Z,99544.19
2019-01-31T04:28:37.980Z,99542.48
2019-01-31T04:31:06.557Z,99546.15
2019-01-31T04:33:35.168Z,99545.31
2019-01-31T04:36:03.976Z,99541.50
2019-01-31T04:38:32.582Z,99540.17
2019-01-31T04:41:01.189Z,99528.33
2019-01-31T04:43:29.760Z,99532.89
2019-01-31T04:45:58.299Z,99541.33
2019-01-31T04:48:26.885Z,99541.34
2019-01-31T04:50:55.420Z,99545.06
2019-01-31T04:53:24.010Z,99546.92
2019-01-31T04:55:52.590Z,99540.55
2019-01-31T04:58:21.232Z,99544.53
2019-01-31T05:00:49.727Z,99548.48
2019-01-31T05:03:18.319Z,99544.14
2019-01-31T05:05:46.850Z,99544.09
2019-01-31T05:08:15.377Z,99545.11
2019-01-31T05:10:43.902Z,99543.73
2019-01-31T05:13:12.530Z,99547.97
2019-01-31T05:15:41.127Z,99543.94
2019-01-31T05:18:09.638Z,99547.06
2019-01-31T05:20:38.265Z,99549.05
2019-01-31T05:23:06.830Z,99553.16
2019-01-31T05:25:35.480Z,99546.05
2019-01-31T05:28:04.056Z,99551.95
2019-01-31T05:30:32.688Z,99551.13
2019-01-31T05:33:01.339Z,99540.72
2019-01-31T05:35:29.973Z,99552.09
2019-01-31T05:37:58.488Z,99546.69
2019-01-31T05:40:27.175Z,99545.84
2019-01-31T05:42:55.658Z,99539.98
2019-01-31T05:45:24.158Z,99543.94
2019-01-31T05:47:52.721Z,99546.86
2019-01-31T05:50:21.563Z,99540.75
2019-01-31T05:52:50.106Z,99546.61
2019-01-31T05:55:18.674Z,99543.48
2019-01-31T05:57:47.288Z,99552.70
2019-01-31T06:00:22.928Z,99558.08
2019-01-31T06:02:51.476Z,99565.30
2019-01-31T06:05:20.505Z,99564.76
2019-01-31T06:07:49.495Z,99563.11
2019-01-31T06:10:18.077Z,99564.06
2019-01-31T06:12:46.679Z,99565.86
2019-01-31T06:15:17.367Z,99570.87
2019-01-31T06:17:45.898Z,99567.41
2019-01-31T06:20:17.866Z,99573.00
2019-01-31T06:22:46.471Z,99573.78
2019-01-31T06:25:15.144Z,99577.77
2019-01-31T06:27:43.734Z,99577.89
2019-01-31T06:30:15.333Z,99569.39
2019-01-31T06:32:43.964Z,99568.64
2019-01-31T06:35:13.207Z,99570.36
2019-01-31T06:37:41.784Z,99569.33
2019-01-31T06:40:16.284Z,99567.45
2019-01-31T06:42:45.190Z,99568.25
2019-01-31T06:45:16.285Z,99575.66
2019-01-31T06:47:44.899Z,99574.50
2019-01-31T06:50:13.817Z,99579.77
2019-01-31T06:52:42.397Z,99578.36
2019-01-31T06:55:11.895Z,99580.16
2019-01-31T06:57:40.483Z,99583.04
2019-01-31T07:00:20.569Z,99594.25
2019-01-31T07:02:49.433Z,99589.19
2019-01-31T07:05:18.004Z,99588.89
2019-01-31T07:07:46.614Z,99596.03
2019-01-31T07:10:21.374Z,99597.79
2019-01-31T07:12:50.026Z,99601.28
2019-01-31T07:15:18.648Z,99600.22
2019-01-31T07:17:47.218Z,99601.00
2019-01-31T07:20:17.334Z,99611.34
2019-01-31T07:22:46.223Z,99606.45
2019-01-31T07:25:20.072Z,99608.47
2019-01-31T07:27:48.659Z,99612.37
2019-01-31T07:30:19.281Z,99612.78
2019-01-31T07:32:47.850Z,99614.68
2019-01-31T07:35:16.858Z,99621.59
2019-01-31T07:37:45.529Z,99610.70
2019-01-31T07:40:16.926Z,99616.38
2019-01-31T07:42:46.064Z,99616.45
2019-01-31T07:45:23.224Z,99619.45
2019-01-31T07:47:51.762Z,99624.04
2019-01-31T07:50:21.072Z,99624.34
2019-01-31T07:52:49.750Z,99627.52
2019-01-31T07:55:18.762Z,99623.47
2019-01-31T07:57:47.339Z,99620.69
2019-01-31T08:00:18.532Z,99612.02
2019-01-31T08:02:47.144Z,99622.20
2019-01-31T08:05:20.938Z,99620.04
2019-01-31T08:07:50.043Z,99626.69
2019-01-31T08:10:21.360Z,99621.52
2019-01-31T08:12:50.008Z,99620.87
2019-01-31T08:15:19.582Z,99627.34
2019-01-31T08:17:48.032Z,99628.64
2019-01-31T08:20:18.986Z,99625.10
2019-01-31T08:22:47.555Z,99621.20
2019-01-31T08:25:18.447Z,99624.83
2019-01-31T08:27:48.953Z,99621.95
2019-01-31T08:30:20.167Z,99622.64
2019-01-31T08:32:48.843Z,99628.84
2019-01-31T08:35:17.536Z,99630.02
2019-01-31T08:37:46.109Z,99624.98
2019-01-31T08:40:15.031Z,99622.61
2019-01-31T08:42:43.638Z,99620.87
2019-01-31T08:45:15.687Z,99620.72
2019-01-31T08:47:44.573Z,99625.19
2019-01-31T08:50:30.525Z,99621.30
2019-01-31T08:52:59.138Z,99630.63
2019-01-31T08:55:27.774Z,99630.63
2019-01-31T08:57:56.387Z,99632.37
2019-01-31T09:00:30.116Z,99632.55
2019-01-31T09:02:59.318Z,99629.08
2019-01-31T09:05:27.964Z,99632.29
2019-01-31T09:07:57.085Z,99627.48
2019-01-31T09:10:40.065Z,99628.02
2019-01-31T09:13:10.327Z,99622.75
2019-01-31T09:15:38.948Z,99631.67
2019-01-31T09:18:07.986Z,99623.25
2019-01-31T09:20:42.197Z,99628.90
2019-01-31T09:23:34.911Z,99625.59
2019-01-31T09:26:18.750Z,99615.74
2019-01-31T09:28:58.929Z,99616.54
2019-01-31T09:31:58.862Z,99611.55
2019-01-31T09:34:38.936Z,99614.88
2019-01-31T09:37:16.069Z,99616.11
2019-01-31T09:40:04.060Z,99620.77
2019-01-31T09:42:35.580Z,99620.77
2019-01-31T09:45:13.610Z,99617.98
2019-01-31T09:48:03.449Z,99612.56
2019-01-31T09:50:43.822Z,99613.79
2019-01-31T09:53:27.138Z,99615.80
2019-01-31T09:56:13.597Z,99613.89
2019-01-31T09:58:51.426Z,99606.59
2019-01-31T10:01:22.964Z,99602.47
2019-01-31T10:04:00.413Z,99606.88
2019-01-31T10:06:31.904Z,99605.92
2019-01-31T10:09:21.303Z,99608.61
2019-01-31T10:11:55.579Z,99608.08
2019-01-31T10:14:47.786Z,99610.16
2019-01-31T10:17:40.787Z,99608.47
2019-01-31T10:20:21.175Z,99609.52
2019-01-31T10:22:58.744Z,99609.64
2019-01-31T10:25:48.378Z,99608.26
2019-01-31T10:28:19.869Z,99611.08
2019-01-31T10:31:00.136Z,99606.50
2019-01-31T10:33:34.211Z,99606.50
2019-01-31T10:36:08.293Z,99610.48
2019-01-31T10:38:39.794Z,99602.30
2019-01-31T10:41:14.054Z,99605.05
2019-01-31T10:43:48.391Z,99601.78
2019-01-31T10:46:37.943Z,99596.03
2019-01-31T10:49:21.262Z,99597.84
2019-01-31T10:52:16.690Z,99588.74
2019-01-31T10:55:15.776Z,99584.95
2019-01-31T10:57:56.393Z,99581.51
2019-01-31T11:00:30.868Z,99577.81
2019-01-31T11:03:16.871Z,99579.92
2019-01-31T11:06:04.925Z,99566.00
2019-01-31T11:08:38.903Z,99566.96
2019-01-31T11:11:19.314Z,99564.84
2019-01-31T11:13:56.709Z,99558.13
2019-01-31T11:16:37.082Z,99558.87
2019-01-31T11:19:26.401Z,99557.83
2019-01-31T11:22:15.796Z,99554.34
2019-01-31T11:24:47.287Z,99547.21
2019-01-31T11:27:50.867Z,99543.08
2019-01-31T11:30:54.011Z,99548.71
2019-01-31T11:33:55.439Z,99535.13
2019-01-31T11:36:29.994Z,99537.69
2019-01-31T11:39:20.439Z,99535.36
2019-01-31T11:42:08.457Z,99530.38
2019-01-31T11:45:01.328Z,99525.31
2019-01-31T11:47:44.075Z,99530.78
2019-01-31T11:50:33.847Z,99525.01
2019-01-31T11:53:08.245Z,99531.80
2019-01-31T11:55:45.377Z,99524.41
2019-01-31T11:58:28.996Z,99532.16
2019-01-31T12:00:57.634Z,99530.94
2019-01-31T12:03:26.213Z,99530.11
2019-01-31T12:05:54.755Z,99528.94
2019-01-31T12:08:23.365Z,99530.56
2019-01-31T12:10:52.059Z,99525.78
2019-01-31T12:13:23.629Z,99528.61
2019-01-31T12:15:50.906Z,99524.23
2019-01-31T12:18:19.396Z,99524.88
2019-01-31T12:20:47.907Z,99527.63
2019-01-31T12:23:16.507Z,99523.30
2019-01-31T12:25:45.179Z,99521.24
2019-01-31T12:28:13.752Z,99506.48
2019-01-31T12:30:42.387Z,99508.53
2019-01-31T12:33:10.894Z,99514.25
2019-01-31T12:35:39.715Z,99520.85
2019-01-31T12:38:08.481Z,99514.49
2019-01-31T12:40:37.097Z,99514.97
2019-01-31T12:43:05.810Z,99514.84
2019-01-31T12:45:34.419Z,99507.20
2019-01-31T12:48:03.103Z,99510.95
2019-01-31T12:50:31.666Z,99509.05
2019-01-31T12:53:00.279Z,99520.00
2019-01-31T12:55:28.871Z,99514.84
2019-01-31T12:57:57.499Z,99506.23
2019-01-31T13:00:27.712Z,99511.77
2019-01-31T13:02:56.342Z,99512.24
2019-01-31T13:05:25.020Z,99505.44
2019-01-31T13:07:53.499Z,99509.23
2019-01-31T13:10:22.327Z,99509.08
2019-01-31T13:12:51.317Z,99508.94
2019-01-31T13:15:20.174Z,99502.09
2019-01-31T13:17:49.393Z,99502.67
2019-01-31T13:20:23.052Z,99495.42
2019-01-31T13:22:56.123Z,99495.42
2019-01-31T13:25:26.324Z,99496.90
2019-01-31T13:27:54.908Z,99491.53
2019-01-31T13:30:25.196Z,99498.86
2019-01-31T13:32:55.717Z,99500.02
2019-01-31T13:35:24.392Z,99493.30
2019-01-31T13:37:52.970Z,99489.84
2019-01-31T13:40:26.294Z,99487.62
2019-01-31T13:42:55.901Z,99485.84
2019-01-31T13:45:32.574Z,99484.88
2019-01-31T13:48:03.184Z,99490.05
2019-01-31T13:50:31.775Z,99498.39
2019-01-31T13:53:00.867Z,99495.30
2019-01-31T13:55:31.295Z,99496.74
2019-01-31T13:57:59.805Z,99497.74
2019-01-31T14:00:28.381Z,99497.61
2019-01-31T14:02:56.886Z,99503.44
2019-01-31T14:05:25.640Z,99504.29
2019-01-31T14:07:54.511Z,99504.05
2019-01-31T14:10:25.192Z,99507.80
2019-01-31T14:12:54.218Z,99501.98
2019-01-31T14:15:33.400Z,99491.08
2019-01-31T14:17:58.356Z,99498.55
2019-01-31T14:20:28.567Z,99493.92
2019-01-31T14:22:57.352Z,99493.09
2019-01-31T14:25:25.973Z,99494.83
2019-01-31T14:27:54.552Z,99487.39
2019-01-31T14:30:32.239Z,99480.75
2019-01-31T14:33:01.287Z,99472.70
2019-01-31T14:35:30.331Z,99479.39
2019-01-31T14:37:58.930Z,99476.89
2019-01-31T14:40:28.549Z,99471.25
2019-01-31T14:42:57.434Z,99472.95
2019-01-31T14:45:26.127Z,99469.35
2019-01-31T14:47:55.914Z,99471.27
2019-01-31T14:50:27.764Z,99468.11
2019-01-31T14:52:57.014Z,99473.34
2019-01-31T14:55:25.690Z,99473.78
2019-01-31T14:57:54.567Z,99471.22
2019-01-31T15:00:25.384Z,99470.97
2019-01-31T15:02:53.960Z,99471.83
2019-01-31T15:05:22.573Z,99474.17
2019-01-31T15:07:51.244Z,99470.80
2019-01-31T15:10:22.465Z,99467.42
2019-01-31T15:12:51.351Z,99463.40
2019-01-31T15:15:19.963Z,99463.02
2019-01-31T15:17:48.602Z,99465.13
2019-01-31T15:20:37.562Z,99468.77
2019-01-31T15:22:59.512Z,99469.25
2019-01-31T15:25:28.098Z,99471.08
2019-01-31T15:27:56.814Z,99467.87
2019-01-31T15:30:33.674Z,99470.55
2019-01-31T15:33:03.789Z,99471.24
2019-01-31T15:35:32.463Z,99466.91
2019-01-31T15:38:01.063Z,99473.35
2019-01-31T15:40:35.323Z,99477.44
2019-01-31T15:43:04.648Z,99471.27
2019-01-31T15:45:33.277Z,99463.45
2019-01-31T15:48:01.875Z,99463.62
2019-01-31T15:50:30.865Z,99465.73
2019-01-31T15:52:59.481Z,99465.03
2019-01-31T15:55:28.574Z,99458.81
2019-01-31T15:57:57.418Z,99452.81
2019-01-31T16:00:38.743Z,99447.84
2019-01-31T16:03:09.238Z,99440.25
2019-01-31T16:05:38.058Z,99441.52
2019-01-31T16:08:07.273Z,99438.70
2019-01-31T16:10:36.718Z,99441.66
2019-01-31T16:13:05.844Z,99435.77
2019-01-31T16:15:34.636Z,99432.73
2019-01-31T16:18:03.255Z,99426.87
2019-01-31T16:20:31.832Z,99425.20
2019-01-31T16:23:00.642Z,99428.30
2019-01-31T16:25:29.313Z,99423.67
2019-01-31T16:27:58.050Z,99407.10
2019-01-31T16:30:26.707Z,99414.16
2019-01-31T16:32:55.407Z,99407.05
2019-01-31T16:35:23.999Z,99406.80
2019-01-31T16:37:53.209Z,99403.61
2019-01-31T16:40:21.775Z,99404.98
2019-01-31T16:42:50.402Z,99406.39
2019-01-31T16:45:18.978Z,99405.21
2019-01-31T16:47:47.595Z,99407.47
2019-01-31T16:50:18.022Z,99405.41
2019-01-31T16:52:46.734Z,99403.19
2019-01-31T16:55:17.477Z,99398.34
2019-01-31T16:57:46.303Z,99396.44
2019-01-31T17:00:20.912Z,99395.41
2019-01-31T17:02:49.496Z,99390.75
2019-01-31T17:05:20.707Z,99384.13
2019-01-31T17:07:49.400Z,99383.04
2019-01-31T17:10:18.011Z,99372.52
2019-01-31T17:12:46.653Z,99379.19
2019-01-31T17:15:18.255Z,99375.78
2019-01-31T17:17:47.246Z,99380.31
2019-01-31T17:20:21.608Z,99379.11
2019-01-31T17:22:50.186Z,99377.53
2019-01-31T17:25:18.772Z,99381.38
2019-01-31T17:27:47.405Z,99375.59
2019-01-31T17:30:21.428Z,99381.66
2019-01-31T17:32:50.256Z,99381.25
2019-01-31T17:35:18.873Z,99381.57
2019-01-31T17:37:47.450Z,99381.38
2019-01-31T17:40:18.874Z,99375.61
2019-01-31T17:42:47.536Z,99375.36
2019-01-31T17:45:29.522Z,99370.03
2019-01-31T17:47:49.137Z,99372.97
2019-01-31T17:50:18.021Z,99369.39
2019-01-31T17:52:46.664Z,99367.09
2019-01-31T17:55:17.645Z,99373.38
2019-01-31T17:57:46.258Z,99371.37
2019-01-31T18:00:24.288Z,99366.97
2019-01-31T18:02:51.826Z,99369.30
2019-01-31T18:05:20.491Z,99363.45
2019-01-31T18:07:49.121Z,99361.16
2019-01-31T18:10:23.982Z,99354.23
2019-01-31T18:12:52.571Z,99351.34
2019-01-31T18:15:21.247Z,99353.77
2019-01-31T18:17:50.346Z,99356.44
2019-01-31T18:20:23.546Z,99350.91
2019-01-31T18:22:52.279Z,99346.06
2019-01-31T18:25:20.875Z,99342.89
2019-01-31T18:27:49.514Z,99344.44
2019-01-31T18:30:23.383Z,99345.73
2019-01-31T18:32:51.976Z,99338.00
2019-01-31T18:35:20.690Z,99338.34
2019-01-31T18:37:49.305Z,99335.05
2019-01-31T18:40:20.718Z,99337.05
2019-01-31T18:42:49.527Z,99337.75
2019-01-31T18:45:23.114Z,99333.00
2019-01-31T18:47:51.677Z,99336.77
2019-01-31T18:50:28.755Z,99332.22
2019-01-31T18:52:57.595Z,99334.83
2019-01-31T18:55:26.897Z,99331.66
2019-01-31T18:57:55.537Z,99324.00
2019-01-31T19:00:32.557Z,99321.85
2019-01-31T19:03:01.154Z,99322.98
2019-01-31T19:05:30.453Z,99321.30
2019-01-31T19:07:59.082Z,99322.02
2019-01-31T19:10:27.692Z,99319.62
2019-01-31T19:12:56.445Z,99318.59
2019-01-31T19:15:26.582Z,99319.03
2019-01-31T19:18:05.487Z,99317.93
2019-01-31T19:20:30.101Z,99307.42
2019-01-31T19:23:00.864Z,99304.34
2019-01-31T19:25:32.164Z,99298.33
2019-01-31T19:28:00.332Z,99290.78
2019-01-31T19:30:33.632Z,99290.48
2019-01-31T19:33:02.446Z,99300.26
2019-01-31T19:35:31.329Z,99303.38
2019-01-31T19:38:02.372Z,99295.47
2019-01-31T19:40:32.466Z,99293.26
2019-01-31T19:43:01.121Z,99283.70
2019-01-31T19:45:40.573Z,99289.29
2019-01-31T19:48:09.463Z,99286.42
2019-01-31T19:50:38.390Z,99284.73
2019-01-31T19:53:07.397Z,99270.37
2019-01-31T19:55:36.155Z,99255.18
2019-01-31T19:58:05.638Z,99251.97
2019-01-31T20:00:34.543Z,99255.55
2019-01-31T20:03:03.236Z,99249.53
2019-01-31T20:05:31.834Z,99259.80
2019-01-31T20:08:01.887Z,99258.89
2019-01-31T20:10:31.827Z,99260.05
2019-01-31T20:13:00.818Z,99251.64
2019-01-31T20:15:30.146Z,99243.66
2019-01-31T20:17:58.947Z,99241.55
2019-01-31T20:20:30.630Z,99243.77
2019-01-31T20:22:59.961Z,99245.78
2019-01-31T20:25:30.269Z,99236.46
2019-01-31T20:27:59.019Z,99230.88
2019-01-31T20:30:30.198Z,99220.12
2019-01-31T20:33:00.019Z,99215.89
2019-01-31T20:35:28.921Z,99208.92
2019-01-31T20:37:57.653Z,99207.09
2019-01-31T20:40:29.049Z,99205.85
2019-01-31T20:42:57.865Z,99201.37
2019-01-31T20:45:26.852Z,99200.56
2019-01-31T20:47:55.521Z,99197.36
2019-01-31T20:50:26.527Z,99200.39
2019-01-31T20:52:55.296Z,99199.38
2019-01-31T20:55:25.283Z,99199.38
2019-01-31T20:57:53.920Z,99209.80
2019-01-31T21:00:34.735Z,99202.18
2019-01-31T21:03:04.766Z,99198.38
2019-01-31T21:05:33.451Z,99188.59
2019-01-31T21:08:02.279Z,99180.42
2019-01-31T21:10:31.199Z,99180.64
2019-01-31T21:12:59.921Z,99165.94
2019-01-31T21:15:28.431Z,99168.98
2019-01-31T21:17:57.134Z,99167.64
2019-01-31T21:20:26.936Z,99173.89
2019-01-31T21:22:55.932Z,99172.42
2019-01-31T21:25:24.732Z,99167.73
2019-01-31T21:27:53.556Z,99170.09
2019-01-31T21:30:25.183Z,99172.42
2019-01-31T21:32:53.968Z,99174.58
2019-01-31T21:35:23.198Z,99174.39
2019-01-31T21:37:51.820Z,99166.42
2019-01-31T21:40:22.131Z,99160.01
2019-01-31T21:42:50.897Z,99148.96
2019-01-31T21:45:21.415Z,99140.34
2019-01-31T21:47:49.995Z,99138.48
2019-01-31T21:50:20.869Z,99123.63
2019-01-31T21:52:49.809Z,99127.17
2019-01-31T21:55:18.485Z,99122.38
2019-01-31T21:57:47.156Z,99114.38
2019-01-31T22:00:21.735Z,99119.09
2019-01-31T22:02:50.360Z,99108.85
2019-01-31T22:05:19.155Z,99108.72
2019-01-31T22:07:47.732Z,99103.34
2019-01-31T22:10:18.643Z,99104.58
2019-01-31T22:12:47.431Z,99097.70
2019-01-31T22:15:27.248Z,99097.08
2019-01-31T22:17:59.788Z,99094.78
2019-01-31T22:23:02.139Z,99084.20
2019-01-31T22:25:30.733Z,99087.56
2019-01-31T22:27:59.401Z,99083.29
2019-01-31T22:30:33.296Z,99082.59
2019-01-31T22:33:02.023Z,99076.86
2019-01-31T22:35:30.615Z,99088.20
2019-01-31T22:37:59.206Z,99090.00
2019-01-31T22:40:27.824Z,99088.45
2019-01-31T22:42:56.508Z,99088.77
2019-01-31T22:45:25.751Z,99085.27
2019-01-31T22:47:54.466Z,99089.06
2019-01-31T22:50:23.900Z,99077.75
2019-01-31T22:52:52.622Z,99075.28
2019-01-31T22:55:26.131Z,99072.31
2019-01-31T22:57:54.896Z,99069.62
2019-01-31T23:00:30.977Z,99063.37
2019-01-31T23:02:59.558Z,99058.92
2019-01-31T23:05:28.179Z,99061.19
2019-01-31T23:07:56.781Z,99051.33
2019-01-31T23:10:25.297Z,99050.81
2019-01-31T23:12:53.932Z,99045.48
2019-01-31T23:15:22.523Z,99034.16
2019-01-31T23:17:51.420Z,99033.27
2019-01-31T23:20:20.057Z,99019.26
2019-01-31T23:22:48.591Z,99018.34
2019-01-31T23:25:17.099Z,99011.75
2019-01-31T23:27:45.691Z,99009.00
2019-01-31T23:30:16.113Z,99006.10
2019-01-31T23:32:45.035Z,99010.02
2019-01-31T23:35:13.744Z,99005.03
2019-01-31T23:37:42.455Z,98993.68
2019-01-31T23:40:12.784Z,98990.92
2019-01-31T23:42:42.848Z,98985.34
2019-01-31T23:45:14.265Z,98979.59
2019-01-31T23:47:48.780Z,98974.66
2019-01-31T23:50:13.511Z,98972.14
2019-01-31T23:52:42.228Z,98959.14
2019-01-31T23:55:17.715Z,98968.36
2019-01-31T23:57:46.650Z,98963.08
